Time;durP1;ratioP1;P1;durP2;ratioP2;P2;SDS_P1;SDS_P2;PMS_P1;PMS_P2;Temp;Humidity;BMP_temperature;BMP_pressure;BME280_temperature;BME280_humidity;BME280_pressure;Samples;Min_cycle;Max_cycle;Signal;HPM_P1;HPM_P2
2024/02/20 00:02:44;;;;;;;28.48;7.75;;;;;;;7.93;100.00;102686.53;5077285;28;20079;-69
2024/02/20 00:05:32;;;;;;;24.63;6.70;;;;;;;7.92;100.00;102682.97;5094903;28;20040;-70
2024/02/20 00:08:20;;;;;;;26.23;7.03;;;;;;;7.90;100.00;102687.78;5072194;28;20105;-70
2024/02/20 00:11:09;;;;;;;29.48;7.32;;;;;;;7.89;100.00;102680.69;5091281;28;20127;-70
2024/02/20 00:13:57;;;;;;;27.83;6.45;;;;;;;7.89;100.00;102686.09;5091699;28;20048;-69
2024/02/20 00:16:46;;;;;;;28.67;6.50;;;;;;;7.86;100.00;102684.66;5113128;28;20051;-69
2024/02/20 00:19:34;;;;;;;25.65;5.88;;;;;;;7.86;100.00;102681.06;5114168;28;20106;-70
2024/02/20 00:22:22;;;;;;;21.73;6.18;;;;;;;7.82;100.00;102683.38;5104528;28;20096;-70
2024/02/20 00:25:10;;;;;;;23.17;7.97;;;;;;;7.82;100.00;102690.69;5109341;27;20134;-70
2024/02/20 00:27:58;;;;;;;24.08;6.45;;;;;;;7.80;100.00;102690.88;5052938;28;20044;-70
2024/02/20 00:30:46;;;;;;;25.30;6.35;;;;;;;7.77;100.00;102693.13;5097128;28;20445;-70
2024/02/20 00:33:35;;;;;;;28.65;6.78;;;;;;;7.77;100.00;102687.72;5111033;28;20052;-71
2024/02/20 00:36:23;;;;;;;24.35;6.32;;;;;;;7.76;100.00;102683.34;5088177;28;20072;-70
2024/02/20 00:39:13;;;;;;;23.95;6.10;;;;;;;7.77;100.00;102687.72;5092790;28;20192;-70
2024/02/20 00:42:01;;;;;;;25.42;5.88;;;;;;;7.77;100.00;102688.56;5081020;28;20130;-70
2024/02/20 00:44:49;;;;;;;26.30;6.40;;;;;;;7.78;100.00;102689.41;5098512;27;20047;-70
2024/02/20 00:47:37;;;;;;;23.67;6.07;;;;;;;7.77;100.00;102688.56;5088298;28;20048;-70
2024/02/20 00:50:25;;;;;;;28.05;6.10;;;;;;;7.77;100.00;102695.84;5082419;28;20508;-71
2024/02/20 00:53:14;;;;;;;25.55;6.43;;;;;;;7.75;100.00;102692.53;5083247;28;20044;-70
2024/02/20 00:56:02;;;;;;;23.55;6.60;;;;;;;7.75;100.00;102696.06;5090107;28;20048;-70
2024/02/20 00:58:50;;;;;;;28.70;6.97;;;;;;;7.76;100.00;102697.75;5100866;28;20165;-69
2024/02/20 01:01:38;;;;;;;19.38;5.32;;;;;;;7.76;100.00;102697.75;5114746;28;20106;-70
2024/02/20 01:04:27;;;;;;;26.15;6.75;;;;;;;7.75;100.00;102696.06;5083384;28;20040;-70
2024/02/20 01:07:15;;;;;;;22.70;5.70;;;;;;;7.74;100.00;102699.81;5095146;28;20052;-69
2024/02/20 01:10:03;;;;;;;25.30;6.90;;;;;;;7.74;100.00;102707.13;5089140;28;20510;-70
2024/02/20 01:12:51;;;;;;;28.95;6.30;;;;;;;7.68;100.00;102706.91;5103577;28;20051;-69
2024/02/20 01:15:39;;;;;;;28.73;6.18;;;;;;;7.65;100.00;102707.31;5079904;28;20047;-69
2024/02/20 01:18:27;;;;;;;26.15;6.90;;;;;;;7.61;100.00;102706.03;5094887;28;20044;-70
2024/02/20 01:21:15;;;;;;;22.80;6.20;;;;;;;7.59;100.00;102699.97;5065176;28;20134;-69
2024/02/20 01:24:03;;;;;;;24.38;6.50;;;;;;;7.59;100.00;102705.38;5088861;28;20085;-69
2024/02/20 01:26:51;;;;;;;22.60;6.00;;;;;;;7.57;100.00;102698.50;5090138;28;20071;-70
2024/02/20 01:29:40;;;;;;;28.60;6.65;;;;;;;7.56;100.00;102703.09;5083059;28;20048;-69
2024/02/20 01:32:28;;;;;;;31.83;8.13;;;;;;;7.57;100.00;102699.31;5081844;28;20500;-69
2024/02/20 01:35:17;;;;;;;23.00;6.68;;;;;;;7.55;100.00;102700.56;5096425;28;20615;-70
2024/02/20 01:38:05;;;;;;;22.15;5.93;;;;;;;7.54;100.00;102698.91;5095921;28;20039;-69
2024/02/20 01:40:53;;;;;;;21.05;5.60;;;;;;;7.53;100.00;102703.50;5106179;27;20043;-69
2024/02/20 01:43:41;;;;;;;23.70;6.47;;;;;;;7.53;100.00;102691.78;5093012;28;20134;-69
2024/02/20 01:46:29;;;;;;;20.85;5.90;;;;;;;7.52;100.00;102696.38;5099667;28;20516;-69
2024/02/20 01:49:17;;;;;;;22.88;6.38;;;;;;;7.53;100.00;102703.50;5069590;28;20043;-69
2024/02/20 01:52:12;;;;;;;24.15;6.57;;;;;;;7.52;100.00;102700.97;5095301;28;20040;-69
2024/02/20 01:55:01;;;;;;;25.48;6.60;;;;;;;7.52;100.00;102701.81;5095055;28;20069;-69
2024/02/20 01:57:49;;;;;;;21.70;5.80;;;;;;;7.47;100.00;102709.72;5071233;28;20035;-69
2024/02/20 02:00:37;;;;;;;24.15;6.15;;;;;;;7.46;100.00;102702.63;5084702;27;20134;-69
2024/02/20 02:03:25;;;;;;;26.33;6.80;;;;;;;7.47;100.00;102698.88;5112164;28;20510;-69
2024/02/20 02:06:13;;;;;;;24.38;6.28;;;;;;;7.48;100.00;102695.13;5108995;27;20118;-70
2024/02/20 02:09:01;;;;;;;24.92;6.40;;;;;;;7.50;100.00;102703.88;5093565;28;20131;-69
2024/02/20 02:11:49;;;;;;;23.25;6.22;;;;;;;7.51;100.00;102711.00;5095726;28;20055;-69
2024/02/20 02:14:43;;;;;;;26.38;6.55;;;;;;;7.49;100.00;102710.34;5088846;28;20036;-68
2024/02/20 02:17:31;;;;;;;29.02;6.57;;;;;;;7.48;100.00;102705.97;5100901;27;20063;-70
2024/02/20 02:20:19;;;;;;;24.25;6.90;;;;;;;7.47;100.00;102709.72;5120842;28;20043;-68
2024/02/20 02:23:06;;;;;;;26.58;6.78;;;;;;;7.47;100.00;102715.13;5117963;28;20034;-69
2024/02/20 02:25:54;;;;;;;22.58;5.90;;;;;;;7.48;100.00;102716.81;5123552;28;20051;-69
2024/02/20 02:28:47;;;;;;;29.58;6.15;;;;;;;7.48;100.00;102711.41;5107501;27;20084;-70
2024/02/20 02:31:35;;;;;;;25.98;6.28;;;;;;;7.48;100.00;102716.81;5105836;28;20085;-69
2024/02/20 02:34:29;;;;;;;22.33;5.97;;;;;;;7.47;100.00;102707.84;5088124;28;20048;-70
2024/02/20 02:37:18;;;;;;;23.65;6.40;;;;;;;7.49;100.00;102717.66;5099003;27;20043;-69
2024/02/20 02:40:08;;;;;;;24.70;6.32;;;;;;;7.48;100.00;102722.25;5083922;28;20071;-69
2024/02/20 02:42:56;;;;;;;27.30;6.88;;;;;;;7.49;100.00;102721.19;5081872;28;20044;-69
2024/02/20 02:45:45;;;;;;;26.88;6.68;;;;;;;7.47;100.00;102723.28;5092249;28;20044;-69
2024/02/20 02:48:33;;;;;;;20.95;6.70;;;;;;;7.47;100.00;102721.41;5103446;28;20529;-69
2024/02/20 02:51:21;;;;;;;21.90;6.10;;;;;;;7.46;100.00;102719.72;5109000;28;20050;-70
2024/02/20 02:54:09;;;;;;;23.10;6.28;;;;;;;7.47;100.00;102715.13;5099658;28;20044;-70
2024/02/20 02:56:57;;;;;;;24.20;6.20;;;;;;;7.48;100.00;102711.41;5078806;28;20040;-70
2024/02/20 02:59:45;;;;;;;23.13;5.80;;;;;;;7.49;100.00;102717.66;5073942;28;20044;-69
2024/02/20 03:02:33;;;;;;;23.88;6.07;;;;;;;7.49;100.00;102715.78;5097079;28;20514;-70
2024/02/20 03:05:21;;;;;;;27.08;6.22;;;;;;;7.50;100.00;102717.44;5096565;28;20556;-70
2024/02/20 03:08:10;;;;;;;27.70;6.88;;;;;;;7.50;100.00;102720.16;5097938;28;20133;-69
2024/02/20 03:10:59;;;;;;;23.80;6.22;;;;;;;7.51;100.00;102721.84;5069603;28;20079;-70
2024/02/20 03:13:47;;;;;;;23.40;6.18;;;;;;;7.54;100.00;102726.03;5087801;28;20144;-70
2024/02/20 03:16:35;;;;;;;24.45;6.30;;;;;;;7.54;100.00;102726.03;5096616;28;20525;-70
2024/02/20 03:19:23;;;;;;;20.48;6.07;;;;;;;7.52;100.00;102718.06;5089686;28;20047;-70
2024/02/20 03:22:11;;;;;;;23.10;6.32;;;;;;;7.51;100.00;102713.72;5111157;28;20555;-69
2024/02/20 03:24:59;;;;;;;23.17;5.78;;;;;;;7.52;100.00;102715.38;5093138;28;20063;-69
2024/02/20 03:27:49;;;;;;;25.45;6.95;;;;;;;7.55;100.00;102706.84;5102146;28;20044;-70
2024/02/20 03:30:38;;;;;;;24.48;6.25;;;;;;;7.55;100.00;102709.56;5075465;28;20054;-70
2024/02/20 03:33:29;;;;;;;24.08;5.93;;;;;;;7.57;100.00;102715.59;5069190;28;20544;-70
2024/02/20 03:36:17;;;;;;;23.17;5.57;;;;;;;7.57;100.00;102718.31;5075973;28;20044;-70
2024/02/20 03:39:05;;;;;;;24.70;6.00;;;;;;;7.57;100.00;102715.59;5077664;28;20075;-70
2024/02/20 03:41:53;;;;;;;24.75;6.53;;;;;;;7.55;100.00;102715.00;5101907;28;20149;-70
2024/02/20 03:44:41;;;;;;;23.40;5.90;;;;;;;7.53;100.00;102716.19;5110659;28;20050;-69
2024/02/20 03:47:29;;;;;;;20.80;6.07;;;;;;;7.47;100.00;102718.69;5096265;28;20181;-68
2024/02/20 03:50:17;;;;;;;23.38;6.80;;;;;;;7.41;100.00;102713.25;5110354;28;20054;-67
2024/02/20 03:53:06;;;;;;;28.20;6.32;;;;;;;7.38;100.00;102700.91;5084898;28;20051;-70
2024/02/20 03:55:55;;;;;;;28.38;7.32;;;;;;;7.37;100.00;102709.25;5113759;28;20070;-70
2024/02/20 03:58:44;;;;;;;30.38;7.50;;;;;;;7.36;100.00;102702.13;5100089;28;20043;-70
2024/02/20 04:01:32;;;;;;;24.83;6.32;;;;;;;7.39;100.00;102699.03;5115950;28;20062;-71
2024/02/20 04:04:20;;;;;;;24.80;5.70;;;;;;;7.42;100.00;102699.47;5127746;27;20514;-70
2024/02/20 04:07:08;;;;;;;24.02;6.25;;;;;;;7.46;100.00;102694.50;5072026;28;20075;-71
2024/02/20 04:09:56;;;;;;;23.45;7.15;;;;;;;7.47;100.00;102694.28;5115847;28;20051;-70
2024/02/20 04:12:44;;;;;;;19.67;6.15;;;;;;;7.48;100.00;102684.28;5085803;28;20032;-70
2024/02/20 04:15:32;;;;;;;23.42;5.95;;;;;;;7.49;100.00;102685.94;5101025;27;20044;-70
2024/02/20 04:18:21;;;;;;;20.25;5.43;;;;;;;7.51;100.00;102675.72;5086106;28;20118;-71
2024/02/20 04:21:09;;;;;;;26.42;7.00;;;;;;;7.52;100.00;102688.25;5114304;28;20047;-70
2024/02/20 04:23:57;;;;;;;24.83;5.53;;;;;;;7.52;100.00;102685.53;5080670;28;20048;-71
2024/02/20 04:26:45;;;;;;;22.27;5.95;;;;;;;7.52;100.00;102685.53;5114129;28;20131;-71
2024/02/20 04:29:33;;;;;;;25.65;6.47;;;;;;;7.53;100.00;102681.81;5116275;27;20143;-71
2024/02/20 04:32:21;;;;;;;22.88;5.32;;;;;;;7.53;100.00;102681.81;5084851;28;20054;-72
2024/02/20 04:35:09;;;;;;;23.52;5.65;;;;;;;7.52;100.00;102684.69;5114224;28;20453;-71
2024/02/20 04:37:58;;;;;;;21.88;5.97;;;;;;;7.52;100.00;102685.53;5112397;28;20057;-71
2024/02/20 04:40:47;;;;;;;19.55;5.65;;;;;;;7.52;100.00;102685.53;5072764;27;20067;-71
2024/02/20 04:43:38;;;;;;;21.85;5.85;;;;;;;7.52;100.00;102685.53;5088913;28;20044;-71
2024/02/20 04:46:28;;;;;;;22.10;5.68;;;;;;;7.51;100.00;102683.88;5082187;28;20388;-71
2024/02/20 04:49:16;;;;;;;26.08;5.68;;;;;;;7.51;100.00;102689.28;5111217;27;20105;-72
2024/02/20 04:52:05;;;;;;;20.33;5.78;;;;;;;7.51;100.00;102692.00;5087147;28;20518;-71
2024/02/20 04:54:53;;;;;;;23.92;5.85;;;;;;;7.50;100.00;102681.34;5095950;28;20052;-71
2024/02/20 04:57:41;;;;;;;22.40;6.00;;;;;;;7.44;100.00;102677.56;5086455;28;20552;-71
2024/02/20 05:00:29;;;;;;;28.55;6.05;;;;;;;7.42;100.00;102679.66;5079480;28;20066;-71
2024/02/20 05:03:17;;;;;;;27.95;6.80;;;;;;;7.39;100.00;102680.88;5101063;28;20153;-71
2024/02/20 05:06:05;;;;;;;22.88;5.82;;;;;;;7.38;100.00;102687.34;5110374;27;20035;-70
2024/02/20 05:08:53;;;;;;;22.25;6.10;;;;;;;7.38;100.00;102686.50;5100403;28;20043;-70
2024/02/20 05:11:41;;;;;;;17.20;5.18;;;;;;;7.39;100.00;102686.31;5053754;28;20460;-70
2024/02/20 05:14:30;;;;;;;19.63;5.32;;;;;;;7.41;100.00;102689.66;5093037;28;20047;-71
2024/02/20 05:17:18;;;;;;;21.52;5.30;;;;;;;7.43;100.00;102692.16;5064375;28;20135;-70
2024/02/20 05:20:07;;;;;;;20.70;6.20;;;;;;;7.44;100.00;102688.44;5087719;28;20044;-70
2024/02/20 05:22:55;;;;;;;20.17;5.82;;;;;;;7.45;100.00;102681.94;5079227;28;20048;-69
2024/02/20 05:25:43;;;;;;;22.33;5.72;;;;;;;7.45;100.00;102688.22;5111953;28;20380;-70
2024/02/20 05:28:31;;;;;;;20.77;5.55;;;;;;;7.45;100.00;102685.50;5091225;28;20035;-70
2024/02/20 05:31:28;;;;;;;19.10;5.97;;;;;;;7.44;100.00;102689.25;5062106;28;20048;-69
2024/02/20 05:34:16;;;;;;;23.58;5.60;;;;;;;7.45;100.00;102684.66;5095295;28;20040;-69
2024/02/20 05:37:04;;;;;;;24.25;5.90;;;;;;;7.46;100.00;102691.78;5074121;28;20076;-70
2024/02/20 05:39:52;;;;;;;20.42;5.90;;;;;;;7.46;100.00;102689.06;5105853;28;20105;-70
2024/02/20 05:42:41;;;;;;;28.25;6.40;;;;;;;7.45;100.00;102685.50;5098653;28;20031;-70
2024/02/20 05:45:30;;;;;;;22.27;5.60;;;;;;;7.43;100.00;102681.31;5102007;28;20100;-70
2024/02/20 05:48:18;;;;;;;21.33;5.75;;;;;;;7.44;100.00;102683.00;5102219;28;20504;-70
2024/02/20 05:51:08;;;;;;;26.73;6.78;;;;;;;7.44;100.00;102683.84;5077717;28;20131;-70
2024/02/20 05:53:56;;;;;;;21.20;6.00;;;;;;;7.45;100.00;102688.22;5108967;28;20047;-70
2024/02/20 05:56:44;;;;;;;24.65;6.20;;;;;;;7.47;100.00;102685.31;5089500;28;20050;-70
2024/02/20 05:59:33;;;;;;;21.88;6.28;;;;;;;7.47;100.00;102682.59;5112585;28;20085;-70
2024/02/20 06:02:21;;;;;;;24.98;6.03;;;;;;;7.46;100.00;102686.34;5110032;28;20134;-69
2024/02/20 06:05:09;;;;;;;25.55;6.55;;;;;;;7.47;100.00;102688.00;5084858;28;20460;-70
2024/02/20 06:07:57;;;;;;;21.60;5.88;;;;;;;7.46;100.00;102687.19;5090274;28;20050;-69
2024/02/20 06:10:45;;;;;;;25.98;7.07;;;;;;;7.47;100.00;102686.13;5096369;28;20050;-70
2024/02/20 06:13:34;;;;;;;20.13;5.88;;;;;;;7.50;100.00;102682.19;5096833;28;20044;-70
2024/02/20 06:16:25;;;;;;;20.42;5.90;;;;;;;7.50;100.00;102681.34;5096998;28;20507;-71
2024/02/20 06:19:14;;;;;;;25.02;6.38;;;;;;;7.45;100.00;102681.94;5095902;28;20445;-71
2024/02/20 06:22:02;;;;;;;26.73;7.10;;;;;;;7.38;100.00;102681.06;5108652;28;20503;-72
2024/02/20 06:24:50;;;;;;;31.50;6.78;;;;;;;7.35;100.00;102678.78;5052038;28;1107302;-72
2024/02/20 06:27:43;;;;;;;25.63;6.72;;;;;;;7.37;100.00;102690.25;5070684;28;20096;-70
2024/02/20 06:30:34;;;;;;;20.23;5.95;;;;;;;7.40;100.00;102692.56;5102976;28;20048;-72
2024/02/20 06:33:21;;;;;;;24.10;6.47;;;;;;;7.41;100.00;102688.84;5119419;27;20058;-69
2024/02/20 06:36:10;;;;;;;21.48;5.68;;;;;;;7.42;100.00;102687.78;5101026;28;20056;-72
2024/02/20 06:38:58;;;;;;;21.15;5.85;;;;;;;7.43;100.00;102686.72;5129916;28;20112;-69
2024/02/20 06:41:46;;;;;;;26.30;6.30;;;;;;;7.43;100.00;102675.88;5119098;28;20081;-68
2024/02/20 06:44:34;;;;;;;27.75;6.70;;;;;;;7.45;100.00;102684.66;5099381;28;20495;-70
2024/02/20 06:47:22;;;;;;;20.17;5.80;;;;;;;7.43;100.00;102686.72;5066428;28;20055;-70
2024/02/20 06:50:13;;;;;;;21.13;6.82;;;;;;;7.41;100.00;102684.25;5093365;28;20142;-70
2024/02/20 06:53:02;;;;;;;22.92;6.25;;;;;;;7.41;100.00;102691.53;4383111;28;10000627;-70
2024/02/20 06:55:50;;;;;;;24.23;6.32;;;;;;;7.40;100.00;102681.72;5108843;28;20487;-70
2024/02/20 06:58:38;;;;;;;25.13;6.72;;;;;;;7.42;100.00;102690.50;5094659;27;20388;-70
2024/02/20 07:01:26;;;;;;;23.95;5.90;;;;;;;7.42;100.00;102690.50;5099075;28;20051;-70
2024/02/20 07:04:16;;;;;;;27.13;6.43;;;;;;;7.42;100.00;102685.91;5104601;28;20124;-70
2024/02/20 07:07:05;;;;;;;24.90;6.05;;;;;;;7.41;100.00;102688.84;5073852;28;20137;-69
2024/02/20 07:09:53;;;;;;;26.45;7.57;;;;;;;7.41;100.00;102695.09;5087631;28;20044;-70
2024/02/20 07:12:41;;;;;;;28.42;6.82;;;;;;;7.42;100.00;102695.91;5119609;27;20051;-72
2024/02/20 07:15:29;;;;;;;21.48;6.15;;;;;;;7.43;100.00;102697.59;5108282;28;20550;-72
2024/02/20 07:18:17;;;;;;;24.02;6.63;;;;;;;7.43;100.00;102703.00;5092839;28;20043;-72
2024/02/20 07:21:05;;;;;;;24.80;6.60;;;;;;;7.46;100.00;102702.63;5093972;28;20051;-72
2024/02/20 07:23:53;;;;;;;23.13;6.70;;;;;;;7.46;100.00;102705.34;5112287;27;20050;-72
2024/02/20 07:26:41;;;;;;;24.38;6.90;;;;;;;7.47;100.00;102712.41;5113667;27;20126;-73
2024/02/20 07:29:29;;;;;;;18.35;5.50;;;;;;;7.51;100.00;102705.56;5104134;27;20122;-74
2024/02/20 07:32:17;;;;;;;22.83;6.40;;;;;;;7.53;100.00;102714.34;5057963;28;20580;-72
2024/02/20 07:35:05;;;;;;;25.20;6.00;;;;;;;7.52;100.00;102712.66;5088160;28;20059;-73
2024/02/20 07:37:53;;;;;;;22.40;6.38;;;;;;;7.54;100.00;102720.59;5103179;28;20050;-71
2024/02/20 07:40:41;;;;;;;21.95;6.57;;;;;;;7.55;100.00;102715.00;5094236;28;20054;-72
2024/02/20 07:43:30;;;;;;;22.45;7.10;;;;;;;7.56;100.00;102707.69;5092487;28;20429;-73
2024/02/20 07:46:21;;;;;;;26.38;7.05;;;;;;;7.57;100.00;102701.19;5108002;28;20560;-70
2024/02/20 07:49:09;;;;;;;21.50;5.78;;;;;;;7.56;100.00;102697.66;5094290;28;20415;-70
2024/02/20 07:51:57;;;;;;;19.60;6.03;;;;;;;7.59;100.00;102702.69;5127760;28;20075;-70
2024/02/20 07:54:45;;;;;;;26.73;7.15;;;;;;;7.59;100.00;102691.81;5097933;28;20047;-71
2024/02/20 07:57:33;;;;;;;29.17;6.85;;;;;;;7.60;100.00;102698.06;5080083;28;20154;-70
2024/02/20 08:00:21;;;;;;;20.92;5.72;;;;;;;7.62;100.00;102696.84;5079364;28;20130;-70
2024/02/20 08:03:12;;;;;;;25.80;6.90;;;;;;;7.61;100.00;102692.47;5108661;28;20039;-71
2024/02/20 08:06:01;;;;;;;22.60;7.00;;;;;;;7.63;100.00;102695.81;5089654;28;20044;-71
2024/02/20 08:08:51;;;;;;;22.15;6.88;;;;;;;7.64;100.00;102694.75;5080868;28;20044;-70
2024/02/20 08:11:39;;;;;;;23.40;7.40;;;;;;;7.66;100.00;102703.53;5093280;28;20039;-71
2024/02/20 08:14:27;;;;;;;23.30;7.25;;;;;;;7.67;100.00;102699.81;5109192;28;20052;-70
2024/02/20 08:17:15;;;;;;;23.70;8.25;;;;;;;7.70;100.00;102698.56;5107432;28;20105;-71
2024/02/20 08:20:06;;;;;;;27.15;7.18;;;;;;;7.71;100.00;102702.09;5107503;28;20126;-70
2024/02/20 08:22:54;;;;;;;24.25;7.05;;;;;;;7.69;100.00;102695.00;5108014;28;20054;-70
2024/02/20 08:25:43;;;;;;;21.73;5.82;;;;;;;7.73;100.00;102691.91;5109002;28;20055;-70
2024/02/20 08:28:31;;;;;;;25.35;6.93;;;;;;;7.74;100.00;102694.38;5097321;28;20062;-70
2024/02/20 08:31:19;;;;;;;23.23;6.70;;;;;;;7.75;100.00;102687.09;5082653;28;20055;-70
2024/02/20 08:34:07;;;;;;;19.30;5.93;;;;;;;7.76;100.00;102696.91;5083285;28;20487;-70
2024/02/20 08:36:58;;;;;;;26.23;6.90;;;;;;;7.78;100.00;102698.38;5097951;28;20048;-70
2024/02/20 08:39:46;;;;;;;24.88;7.72;;;;;;;7.80;100.00;102692.75;5120355;27;20035;-70
2024/02/20 08:42:39;;;;;;;24.70;7.45;;;;;;;7.79;100.00;102696.50;5135761;27;20100;-69
2024/02/20 08:45:27;;;;;;;28.05;8.07;;;;;;;7.80;100.00;102701.72;5096435;28;20051;-71
2024/02/20 08:48:15;;;;;;;19.88;6.75;;;;;;;7.78;100.00;102705.69;5099300;28;20464;-73
2024/02/20 08:51:03;;;;;;;23.52;7.90;;;;;;;7.82;100.00;102715.09;5085292;28;20044;-72
2024/02/20 08:53:51;;;;;;;25.60;7.40;;;;;;;7.87;100.00;102712.63;5131583;27;20080;-72
2024/02/20 08:56:39;;;;;;;49.55;13.07;;;;;;;7.94;100.00;102716.19;5119967;27;20091;-73
2024/02/20 08:59:27;;;;;;;28.33;8.20;;;;;;;8.00;100.00;102720.78;5106952;28;20119;-72
2024/02/20 09:02:15;;;;;;;27.85;7.57;;;;;;;8.00;100.00;102723.50;5086917;28;20044;-73
2024/02/20 09:05:04;;;;;;;24.50;7.78;;;;;;;8.02;100.00;102713.28;5100735;27;20043;-73
2024/02/20 09:07:52;;;;;;;21.00;6.95;;;;;;;8.02;100.00;102721.41;5099575;28;20403;-72
2024/02/20 09:10:40;;;;;;;22.02;6.65;;;;;;;8.03;100.00;102725.81;5071826;28;20495;-72
2024/02/20 09:13:29;;;;;;;19.35;6.63;;;;;;;8.03;100.00;102719.53;5079993;28;20044;-71
2024/02/20 09:16:17;;;;;;;32.15;8.60;;;;;;;8.00;100.00;102723.50;5052027;28;20048;-71
2024/02/20 09:19:06;;;;;;;27.98;8.32;;;;;;;7.99;100.00;102723.72;5113857;27;20093;-70
2024/02/20 09:21:54;;;;;;;25.05;8.80;;;;;;;7.97;100.00;102721.19;5119310;27;20047;-70
2024/02/20 09:24:43;;;;;;;22.10;8.07;;;;;;;8.03;100.00;102722.25;5106122;27;20501;-72
2024/02/20 09:27:33;;;;;;;25.65;8.52;;;;;;;8.06;100.00;102724.59;5134922;27;20075;-72
2024/02/20 09:30:21;;;;;;;24.45;8.27;;;;;;;8.05;100.00;102721.00;5125232;27;20177;-72
2024/02/20 09:33:09;;;;;;;21.75;7.95;;;;;;;8.05;100.00;102712.84;5098663;28;20147;-72
2024/02/20 09:35:58;;;;;;;27.58;9.23;;;;;;;8.03;100.00;102709.53;5113846;28;20043;-72
2024/02/20 09:38:45;;;;;;;27.88;8.57;;;;;;;8.04;100.00;102710.38;5084689;28;20236;-72
2024/02/20 09:41:37;;;;;;;20.77;7.80;;;;;;;8.05;100.00;102709.31;5099051;28;20396;-72
2024/02/20 09:44:27;;;;;;;28.95;9.00;;;;;;;8.07;100.00;102712.66;5117488;27;20097;-72
2024/02/20 09:47:15;;;;;;;20.83;7.97;;;;;;;8.08;100.00;102707.03;5118954;27;20035;-72
2024/02/20 09:50:03;;;;;;;30.10;9.48;;;;;;;8.10;100.00;102699.53;5119467;27;20047;-72
2024/02/20 09:52:53;;;;;;;28.65;9.18;;;;;;;8.16;100.00;102706.00;5090825;27;20486;-71
2024/02/20 09:55:41;;;;;;;25.45;8.90;;;;;;;8.19;100.00;102708.31;5106619;28;20047;-71
2024/02/20 09:58:30;;;;;;;29.75;8.82;;;;;;;8.21;100.00;102710.84;5090195;27;20051;-72
2024/02/20 10:01:23;;;;;;;24.00;8.30;;;;;;;8.25;100.00;102706.63;5099155;28;20507;-72
2024/02/20 10:04:11;;;;;;;23.63;9.15;;;;;;;8.27;100.00;102708.13;5084836;28;20048;-72
2024/02/20 10:07:05;;;;;;;28.55;9.23;;;;;;;8.31;100.00;102703.94;5099779;27;20043;-72
2024/02/20 10:09:54;;;;;;;29.63;10.00;;;;;;;8.33;100.00;102703.75;5097633;28;20039;-71
2024/02/20 10:12:44;;;;;;;25.65;9.13;;;;;;;8.34;100.00;102710.84;5128327;27;20671;-72
2024/02/20 10:15:32;;;;;;;29.55;9.98;;;;;;;8.39;100.00;102708.34;5098254;28;20500;-72
2024/02/20 10:18:22;;;;;;;23.83;8.40;;;;;;;8.43;100.00;102703.38;5069590;28;20044;-72
2024/02/20 10:21:13;;;;;;;24.58;7.88;;;;;;;8.52;100.00;102702.13;5097329;28;20121;-71
2024/02/20 10:24:08;;;;;;;31.60;9.88;;;;;;;8.50;100.00;102696.06;5084001;28;20043;-71
2024/02/20 10:27:10;;;;;;;23.27;8.50;;;;;;;8.50;100.00;102693.34;5118132;28;20048;-70
2024/02/20 10:29:58;;;;;;;33.55;10.18;;;;;;;8.46;100.00;102698.34;5113109;28;20039;-71
2024/02/20 10:32:47;;;;;;;28.80;9.02;;;;;;;8.46;100.00;102690.19;5086023;28;20096;-72
2024/02/20 10:35:39;;;;;;;24.98;9.05;;;;;;;8.50;100.00;102693.34;5110516;28;20123;-71
2024/02/20 10:38:28;;;;;;;26.02;8.38;;;;;;;8.55;100.00;102690.00;5097893;28;20495;-71
2024/02/20 10:41:16;;;;;;;33.40;9.75;;;;;;;8.53;100.00;102685.59;5113775;28;20047;-71
2024/02/20 10:44:05;;;;;;;27.90;8.90;;;;;;;8.58;100.00;102678.72;5073201;28;20484;-72
2024/02/20 10:46:59;;;;;;;24.95;8.63;;;;;;;8.59;100.00;102674.97;5114878;28;20099;-69
2024/02/20 10:49:47;;;;;;;35.85;9.02;;;;;;;8.61;100.00;102679.16;5104076;28;20107;-68
2024/02/20 10:52:36;;;;;;;32.88;9.38;;;;;;;8.59;100.00;102674.97;5096106;28;20043;-70
2024/02/20 10:55:24;;;;;;;24.80;8.55;;;;;;;8.59;100.00;102674.97;5119545;28;20067;-69
2024/02/20 10:58:21;;;;;;;26.30;8.85;;;;;;;8.59;100.00;102674.97;5145030;27;20102;-69
2024/02/20 11:01:11;;;;;;;24.52;9.00;;;;;;;8.58;100.00;102674.13;5127470;28;20077;-71
2024/02/20 11:03:59;;;;;;;22.83;8.63;;;;;;;8.60;100.00;102673.91;5126393;28;20097;-71
2024/02/20 11:06:53;;;;;;;26.90;9.13;;;;;;;8.61;100.00;102678.28;5099736;28;20487;-71
2024/02/20 11:10:01;;;;;;;23.98;7.50;;;;;;;8.63;100.00;102665.34;5086681;27;20081;-72
2024/02/20 11:12:52;;;;;;;29.88;9.30;;;;;;;8.68;100.00;102662.81;5133123;27;20043;-71
2024/02/20 11:15:40;;;;;;;28.95;9.15;;;;;;;8.73;100.00;102661.16;5093264;28;20093;-71
2024/02/20 11:18:28;;;;;;;25.88;8.10;;;;;;;8.75;100.00;102663.66;5112418;28;20407;-70
2024/02/20 11:21:30;;;;;;;29.92;9.13;;;;;;;8.76;100.00;102638.16;5098076;27;20046;-70
2024/02/20 11:24:19;;;;;;;27.63;8.40;;;;;;;8.78;100.00;102636.06;5110054;28;20136;-70
2024/02/20 11:27:09;;;;;;;22.42;7.88;;;;;;;8.82;100.00;102636.47;5068334;27;20066;-70
2024/02/20 11:30:08;;;;;;;26.50;8.00;;;;;;;8.83;100.00;102638.16;5116771;27;20192;-71
2024/02/20 11:32:57;;;;;;;26.83;7.72;;;;;;;8.83;100.00;102630.84;5099354;28;20576;-71
2024/02/20 11:35:46;;;;;;;19.70;6.47;;;;;;;8.90;100.00;102622.69;5112200;28;20063;-71
2024/02/20 11:38:36;;;;;;;25.23;8.10;;;;;;;8.95;100.00;102623.69;5097341;28;20097;-71
2024/02/20 11:41:24;;;;;;;28.33;8.13;;;;;;;9.05;100.00;102608.84;5111884;28;20043;-71
2024/02/20 11:44:14;;;;;;;23.83;7.22;;;;;;;9.10;100.00;102606.31;5111235;28;20040;-71
2024/02/20 11:47:02;;;;;;;24.40;7.93;;;;;;;9.19;100.00;102602.31;5111044;28;20084;-70
2024/02/20 11:50:02;;;;;;;20.10;6.72;;;;;;;9.20;100.00;102594.97;5088765;28;20047;-70
2024/02/20 11:53:04;;;;;;;22.35;7.25;;;;;;;9.21;100.00;102597.44;5117099;28;20046;-70
2024/02/20 11:55:53;;;;;;;25.38;7.70;;;;;;;9.33;100.00;102605.78;5118472;28;20096;-70
2024/02/20 11:58:41;;;;;;;26.75;7.72;;;;;;;9.26;100.00;102600.38;5103863;28;20129;-70
2024/02/20 12:01:29;;;;;;;28.83;8.02;;;;;;;9.35;100.00;102598.25;5118566;28;20040;-69
2024/02/20 12:04:27;;;;;;;25.60;7.93;;;;;;;9.31;100.00;102605.19;5096510;28;20047;-70
2024/02/20 12:07:16;;;;;;;27.83;8.27;;;;;;;9.31;100.00;102597.84;5084093;28;20526;-70
2024/02/20 12:10:04;;;;;;;29.20;8.55;;;;;;;9.31;100.00;102597.84;5111397;28;20047;-70
2024/02/20 12:12:53;;;;;;;33.40;8.70;;;;;;;9.33;100.00;102584.88;5114875;27;20506;-70
2024/02/20 12:15:41;;;;;;;26.17;7.95;;;;;;;9.34;100.00;102574.81;5085897;28;20039;-70
2024/02/20 12:18:31;;;;;;;26.42;7.85;;;;;;;9.38;100.00;102565.19;5085211;28;20047;-70
2024/02/20 12:21:24;;;;;;;21.92;6.65;;;;;;;9.39;100.00;102555.97;5115643;28;20488;-70
2024/02/20 12:24:22;;;;;;;32.97;8.70;;;;;;;9.44;100.00;102555.31;5088451;28;20514;-71
2024/02/20 12:27:13;;;;;;;28.40;8.55;;;;;;;9.55;100.00;102549.19;5120956;27;20415;-70
2024/02/20 12:30:02;;;;;;;26.70;7.43;;;;;;;9.55;100.00;102543.75;5136603;27;20047;-70
2024/02/20 12:32:50;;;;;;;23.95;7.63;;;;;;;9.53;100.00;102551.28;5120963;27;20047;-71
2024/02/20 12:35:38;;;;;;;26.25;8.25;;;;;;;9.60;100.00;102539.31;5136004;27;20657;-70
2024/02/20 12:38:27;;;;;;;24.98;7.07;;;;;;;9.61;100.00;102537.41;5124751;27;20044;-70
2024/02/20 12:41:15;;;;;;;31.42;8.07;;;;;;;9.65;100.00;102541.38;5059689;28;20466;-70
2024/02/20 12:44:03;;;;;;;19.58;6.10;;;;;;;9.67;100.00;102530.25;5099544;28;20043;-70
2024/02/20 12:46:51;;;;;;;24.73;7.55;;;;;;;9.66;100.00;102521.25;5114665;28;20048;-70
2024/02/20 12:49:39;;;;;;;24.42;7.45;;;;;;;9.67;100.00;102513.91;5072758;28;20051;-70
2024/02/20 12:52:29;;;;;;;28.83;8.05;;;;;;;9.67;100.00;102522.94;5039349;28;20482;-70
2024/02/20 12:55:17;;;;;;;25.25;6.93;;;;;;;9.72;100.00;102512.22;5080435;28;20048;-71
2024/02/20 12:58:06;;;;;;;26.60;7.30;;;;;;;9.80;100.00;102508.38;5065785;28;20511;-70